sensor_id;sensor_type;location;lat;lon;timestamp;P1;durP1;ratioP1;P2;durP2;ratioP2
40959;SDS011;27842;52.272;8.052;2022-10-16T00:01:05;13.30;;;4.45;;
40959;SDS011;27842;52.272;8.052;2022-10-16T00:03:36;11.50;;;4.22;;
40959;SDS011;27842;52.272;8.052;2022-10-16T00:06:03;12.55;;;4.60;;
40959;SDS011;27842;52.272;8.052;2022-10-16T00:08:30;14.30;;;4.35;;
40959;SDS011;27842;52.272;8.052;2022-10-16T00:11:03;11.90;;;4.60;;
40959;SDS011;27842;52.272;8.052;2022-10-16T00:13:35;11.70;;;4.40;;
40959;SDS011;27842;52.272;8.052;2022-10-16T00:16:02;14.02;;;4.47;;
40959;SDS011;27842;52.272;8.052;2022-10-16T00:18:28;14.95;;;4.70;;
40959;SDS011;27842;52.272;8.052;2022-10-16T00:20:54;13.90;;;4.95;;
40959;SDS011;27842;52.272;8.052;2022-10-16T00:23:20;14.98;;;4.50;;
40959;SDS011;27842;52.272;8.052;2022-10-16T00:25:59;14.88;;;4.88;;
40959;SDS011;27842;52.272;8.052;2022-10-16T00:28:27;13.23;;;4.63;;
40959;SDS011;27842;52.272;8.052;2022-10-16T00:30:52;15.07;;;4.75;;
40959;SDS011;27842;52.272;8.052;2022-10-16T00:33:18;13.65;;;4.60;;
40959;SDS011;27842;52.272;8.052;2022-10-16T00:35:44;14.73;;;5.10;;
40959;SDS011;27842;52.272;8.052;2022-10-16T00:38:10;12.25;;;5.28;;
40959;SDS011;27842;52.272;8.052;2022-10-16T00:40:36;16.08;;;5.70;;
40959;SDS011;27842;52.272;8.052;2022-10-16T00:43:02;11.95;;;5.03;;
40959;SDS011;27842;52.272;8.052;2022-10-16T00:45:27;15.13;;;5.75;;
40959;SDS011;27842;52.272;8.052;2022-10-16T00:47:54;14.40;;;5.85;;
40959;SDS011;27842;52.272;8.052;2022-10-16T00:52:57;15.98;;;6.05;;
40959;SDS011;27842;52.272;8.052;2022-10-16T00:55:28;15.35;;;6.00;;
40959;SDS011;27842;52.272;8.052;2022-10-16T00:57:55;16.75;;;6.13;;
40959;SDS011;27842;52.272;8.052;2022-10-16T01:00:23;15.82;;;6.45;;
40959;SDS011;27842;52.272;8.052;2022-10-16T01:02:54;17.80;;;6.70;;
40959;SDS011;27842;52.272;8.052;2022-10-16T01:05:42;15.68;;;6.20;;
40959;SDS011;27842;52.272;8.052;2022-10-16T01:08:18;16.27;;;5.63;;
40959;SDS011;27842;52.272;8.052;2022-10-16T01:10:59;16.88;;;6.35;;
40959;SDS011;27842;52.272;8.052;2022-10-16T01:13:36;15.85;;;6.00;;
40959;SDS011;27842;52.272;8.052;2022-10-16T01:16:08;15.70;;;6.03;;
40959;SDS011;27842;52.272;8.052;2022-10-16T01:18:44;14.82;;;6.55;;
40959;SDS011;27842;52.272;8.052;2022-10-16T01:21:20;17.13;;;6.28;;
40959;SDS011;27842;52.272;8.052;2022-10-16T01:37:35;19.57;;;6.67;;
40959;SDS011;27842;52.272;8.052;2022-10-16T01:40:05;15.75;;;6.05;;
40959;SDS011;27842;52.272;8.052;2022-10-16T01:42:44;16.30;;;6.28;;
40959;SDS011;27842;52.272;8.052;2022-10-16T01:45:13;16.60;;;6.53;;
40959;SDS011;27842;52.272;8.052;2022-10-16T01:47:43;16.80;;;6.63;;
40959;SDS011;27842;52.272;8.052;2022-10-16T01:50:10;17.30;;;6.57;;
40959;SDS011;27842;52.272;8.052;2022-10-16T01:52:39;16.17;;;6.43;;
40959;SDS011;27842;52.272;8.052;2022-10-16T01:55:08;17.90;;;6.20;;
40959;SDS011;27842;52.272;8.052;2022-10-16T01:57:38;15.85;;;6.00;;
40959;SDS011;27842;52.272;8.052;2022-10-16T02:00:10;15.82;;;6.90;;
40959;SDS011;27842;52.272;8.052;2022-10-16T02:02:39;14.25;;;6.07;;
40959;SDS011;27842;52.272;8.052;2022-10-16T02:05:30;17.48;;;6.50;;
40959;SDS011;27842;52.272;8.052;2022-10-16T02:08:04;17.33;;;6.28;;
40959;SDS011;27842;52.272;8.052;2022-10-16T02:10:29;17.00;;;6.18;;
40959;SDS011;27842;52.272;8.052;2022-10-16T02:13:39;17.00;;;6.18;;
40959;SDS011;27842;52.272;8.052;2022-10-16T02:15:49;19.33;;;6.40;;
40959;SDS011;27842;52.272;8.052;2022-10-16T02:18:15;15.77;;;6.55;;
40959;SDS011;27842;52.272;8.052;2022-10-16T02:21:02;16.20;;;6.03;;
40959;SDS011;27842;52.272;8.052;2022-10-16T02:24:03;15.20;;;6.30;;
40959;SDS011;27842;52.272;8.052;2022-10-16T02:26:57;14.00;;;5.88;;
40959;SDS011;27842;52.272;8.052;2022-10-16T02:29:39;16.35;;;6.30;;
40959;SDS011;27842;52.272;8.052;2022-10-16T02:32:13;14.65;;;6.30;;
40959;SDS011;27842;52.272;8.052;2022-10-16T02:34:42;15.27;;;6.35;;
40959;SDS011;27842;52.272;8.052;2022-10-16T02:37:09;15.13;;;6.40;;
40959;SDS011;27842;52.272;8.052;2022-10-16T02:39:35;16.83;;;6.18;;
40959;SDS011;27842;52.272;8.052;2022-10-16T02:42:03;19.20;;;6.07;;
40959;SDS011;27842;52.272;8.052;2022-10-16T02:44:29;14.57;;;6.20;;
40959;SDS011;27842;52.272;8.052;2022-10-16T02:46:55;15.35;;;5.90;;
40959;SDS011;27842;52.272;8.052;2022-10-16T02:49:20;15.77;;;6.07;;
40959;SDS011;27842;52.272;8.052;2022-10-16T02:51:46;14.68;;;6.15;;
40959;SDS011;27842;52.272;8.052;2022-10-16T02:54:11;14.50;;;5.90;;
40959;SDS011;27842;52.272;8.052;2022-10-16T02:56:37;17.63;;;5.88;;
40959;SDS011;27842;52.272;8.052;2022-10-16T02:59:03;16.42;;;6.47;;
40959;SDS011;27842;52.272;8.052;2022-10-16T03:01:29;15.85;;;6.30;;
40959;SDS011;27842;52.272;8.052;2022-10-16T03:03:54;15.82;;;6.38;;
40959;SDS011;27842;52.272;8.052;2022-10-16T03:06:20;17.05;;;5.88;;
40959;SDS011;27842;52.272;8.052;2022-10-16T03:08:46;15.32;;;6.25;;
40959;SDS011;27842;52.272;8.052;2022-10-16T03:11:12;15.65;;;6.28;;
40959;SDS011;27842;52.272;8.052;2022-10-16T03:13:37;15.25;;;5.93;;
40959;SDS011;27842;52.272;8.052;2022-10-16T03:16:03;13.27;;;5.28;;
40959;SDS011;27842;52.272;8.052;2022-10-16T03:18:28;16.33;;;5.82;;
40959;SDS011;27842;52.272;8.052;2022-10-16T03:20:54;14.65;;;5.43;;
40959;SDS011;27842;52.272;8.052;2022-10-16T03:23:20;14.05;;;5.63;;
40959;SDS011;27842;52.272;8.052;2022-10-16T03:25:45;14.75;;;5.88;;
40959;SDS011;27842;52.272;8.052;2022-10-16T03:28:11;13.10;;;5.63;;
40959;SDS011;27842;52.272;8.052;2022-10-16T03:30:36;13.93;;;5.45;;
40959;SDS011;27842;52.272;8.052;2022-10-16T03:33:04;16.00;;;6.03;;
40959;SDS011;27842;52.272;8.052;2022-10-16T03:35:30;13.98;;;5.47;;
40959;SDS011;27842;52.272;8.052;2022-10-16T03:37:56;17.50;;;5.57;;
40959;SDS011;27842;52.272;8.052;2022-10-16T03:40:22;15.50;;;5.57;;
40959;SDS011;27842;52.272;8.052;2022-10-16T03:42:48;13.10;;;5.38;;
40959;SDS011;27842;52.272;8.052;2022-10-16T03:45:13;15.52;;;5.70;;
40959;SDS011;27842;52.272;8.052;2022-10-16T03:47:39;14.68;;;4.95;;
40959;SDS011;27842;52.272;8.052;2022-10-16T03:50:04;14.80;;;5.53;;
40959;SDS011;27842;52.272;8.052;2022-10-16T03:52:31;13.07;;;5.32;;
40959;SDS011;27842;52.272;8.052;2022-10-16T03:54:57;11.88;;;4.55;;
40959;SDS011;27842;52.272;8.052;2022-10-16T03:57:22;15.02;;;4.93;;
40959;SDS011;27842;52.272;8.052;2022-10-16T03:59:48;14.88;;;4.90;;
40959;SDS011;27842;52.272;8.052;2022-10-16T04:02:14;14.68;;;5.00;;
40959;SDS011;27842;52.272;8.052;2022-10-16T04:04:40;12.45;;;4.85;;
40959;SDS011;27842;52.272;8.052;2022-10-16T04:07:05;14.38;;;4.80;;
40959;SDS011;27842;52.272;8.052;2022-10-16T04:09:31;11.90;;;4.35;;
40959;SDS011;27842;52.272;8.052;2022-10-16T04:11:56;13.13;;;4.20;;
40959;SDS011;27842;52.272;8.052;2022-10-16T04:14:22;11.70;;;4.40;;
40959;SDS011;27842;52.272;8.052;2022-10-16T04:16:47;11.98;;;4.47;;
40959;SDS011;27842;52.272;8.052;2022-10-16T04:19:13;14.00;;;4.65;;
40959;SDS011;27842;52.272;8.052;2022-10-16T04:21:39;12.30;;;3.92;;
40959;SDS011;27842;52.272;8.052;2022-10-16T04:24:04;11.75;;;4.30;;
40959;SDS011;27842;52.272;8.052;2022-10-16T04:26:30;12.07;;;4.40;;
40959;SDS011;27842;52.272;8.052;2022-10-16T04:28:56;11.15;;;4.28;;
40959;SDS011;27842;52.272;8.052;2022-10-16T04:31:22;12.00;;;4.05;;
40959;SDS011;27842;52.272;8.052;2022-10-16T04:33:47;13.70;;;4.07;;
40959;SDS011;27842;52.272;8.052;2022-10-16T04:36:13;10.90;;;4.00;;
40959;SDS011;27842;52.272;8.052;2022-10-16T04:38:39;10.40;;;3.70;;
40959;SDS011;27842;52.272;8.052;2022-10-16T04:41:05;11.38;;;4.03;;
40959;SDS011;27842;52.272;8.052;2022-10-16T04:43:32;11.95;;;4.28;;
40959;SDS011;27842;52.272;8.052;2022-10-16T04:45:58;10.35;;;3.38;;
40959;SDS011;27842;52.272;8.052;2022-10-16T04:48:24;10.50;;;3.80;;
40959;SDS011;27842;52.272;8.052;2022-10-16T04:50:50;7.82;;;3.45;;
40959;SDS011;27842;52.272;8.052;2022-10-16T04:53:16;10.50;;;3.60;;
40959;SDS011;27842;52.272;8.052;2022-10-16T04:55:41;11.68;;;3.50;;
40959;SDS011;27842;52.272;8.052;2022-10-16T04:58:07;10.68;;;3.65;;
40959;SDS011;27842;52.272;8.052;2022-10-16T05:00:33;10.23;;;3.45;;
40959;SDS011;27842;52.272;8.052;2022-10-16T05:02:59;13.55;;;3.60;;
40959;SDS011;27842;52.272;8.052;2022-10-16T05:05:26;8.82;;;3.35;;
40959;SDS011;27842;52.272;8.052;2022-10-16T05:07:52;9.23;;;3.03;;
40959;SDS011;27842;52.272;8.052;2022-10-16T05:10:18;9.45;;;3.10;;
40959;SDS011;27842;52.272;8.052;2022-10-16T05:12:44;6.63;;;3.10;;
40959;SDS011;27842;52.272;8.052;2022-10-16T05:15:09;8.82;;;2.90;;
40959;SDS011;27842;52.272;8.052;2022-10-16T05:17:35;9.95;;;3.45;;
40959;SDS011;27842;52.272;8.052;2022-10-16T05:20:01;7.07;;;2.70;;
40959;SDS011;27842;52.272;8.052;2022-10-16T05:22:28;8.75;;;3.13;;
40959;SDS011;27842;52.272;8.052;2022-10-16T05:24:54;7.68;;;3.22;;
40959;SDS011;27842;52.272;8.052;2022-10-16T05:27:19;8.50;;;3.25;;
40959;SDS011;27842;52.272;8.052;2022-10-16T05:29:46;10.23;;;3.28;;
40959;SDS011;27842;52.272;8.052;2022-10-16T05:32:12;9.57;;;2.92;;
40959;SDS011;27842;52.272;8.052;2022-10-16T05:34:39;11.77;;;3.03;;
40959;SDS011;27842;52.272;8.052;2022-10-16T05:37:04;8.95;;;2.67;;
40959;SDS011;27842;52.272;8.052;2022-10-16T05:39:30;10.75;;;2.97;;
40959;SDS011;27842;52.272;8.052;2022-10-16T05:41:56;9.05;;;3.10;;
40959;SDS011;27842;52.272;8.052;2022-10-16T05:44:22;8.38;;;2.92;;
40959;SDS011;27842;52.272;8.052;2022-10-16T05:46:47;11.93;;;2.78;;
40959;SDS011;27842;52.272;8.052;2022-10-16T05:49:13;5.50;;;2.55;;
40959;SDS011;27842;52.272;8.052;2022-10-16T05:51:38;12.85;;;3.20;;
40959;SDS011;27842;52.272;8.052;2022-10-16T05:54:04;9.00;;;3.05;;
40959;SDS011;27842;52.272;8.052;2022-10-16T05:56:30;12.85;;;3.13;;
40959;SDS011;27842;52.272;8.052;2022-10-16T05:58:55;8.02;;;2.83;;
40959;SDS011;27842;52.272;8.052;2022-10-16T06:01:21;9.90;;;2.75;;
40959;SDS011;27842;52.272;8.052;2022-10-16T06:03:49;10.43;;;2.92;;
40959;SDS011;27842;52.272;8.052;2022-10-16T06:06:18;7.68;;;2.72;;
40959;SDS011;27842;52.272;8.052;2022-10-16T06:08:47;6.28;;;2.40;;
40959;SDS011;27842;52.272;8.052;2022-10-16T06:11:17;6.13;;;2.80;;
40959;SDS011;27842;52.272;8.052;2022-10-16T06:13:51;5.60;;;2.67;;
40959;SDS011;27842;52.272;8.052;2022-10-16T06:16:18;5.72;;;2.50;;
40959;SDS011;27842;52.272;8.052;2022-10-16T06:18:44;16.92;;;3.38;;
40959;SDS011;27842;52.272;8.052;2022-10-16T06:21:11;9.88;;;2.92;;
40959;SDS011;27842;52.272;8.052;2022-10-16T06:23:40;5.72;;;2.60;;
40959;SDS011;27842;52.272;8.052;2022-10-16T06:26:07;7.90;;;2.25;;
40959;SDS011;27842;52.272;8.052;2022-10-16T06:28:34;13.52;;;3.10;;
40959;SDS011;27842;52.272;8.052;2022-10-16T06:31:00;11.60;;;2.95;;
40959;SDS011;27842;52.272;8.052;2022-10-16T06:33:26;9.38;;;2.60;;
40959;SDS011;27842;52.272;8.052;2022-10-16T06:35:51;7.63;;;2.47;;
40959;SDS011;27842;52.272;8.052;2022-10-16T06:38:17;7.38;;;2.60;;
40959;SDS011;27842;52.272;8.052;2022-10-16T06:40:42;6.90;;;3.30;;
40959;SDS011;27842;52.272;8.052;2022-10-16T06:43:08;6.78;;;2.30;;
40959;SDS011;27842;52.272;8.052;2022-10-16T06:45:34;8.60;;;2.65;;
40959;SDS011;27842;52.272;8.052;2022-10-16T06:47:59;7.60;;;2.88;;
40959;SDS011;27842;52.272;8.052;2022-10-16T06:50:25;9.10;;;2.80;;
40959;SDS011;27842;52.272;8.052;2022-10-16T06:52:51;7.95;;;2.67;;
40959;SDS011;27842;52.272;8.052;2022-10-16T06:55:16;7.32;;;2.75;;
40959;SDS011;27842;52.272;8.052;2022-10-16T06:57:42;6.40;;;2.65;;
40959;SDS011;27842;52.272;8.052;2022-10-16T07:00:09;6.38;;;2.60;;
40959;SDS011;27842;52.272;8.052;2022-10-16T07:02:34;6.50;;;2.47;;
40959;SDS011;27842;52.272;8.052;2022-10-16T07:05:00;8.98;;;2.40;;
40959;SDS011;27842;52.272;8.052;2022-10-16T07:07:26;7.07;;;2.40;;
40959;SDS011;27842;52.272;8.052;2022-10-16T07:09:52;9.05;;;2.83;;
40959;SDS011;27842;52.272;8.052;2022-10-16T07:12:17;4.43;;;2.30;;
40959;SDS011;27842;52.272;8.052;2022-10-16T07:14:43;7.25;;;2.45;;
40959;SDS011;27842;52.272;8.052;2022-10-16T07:17:08;6.07;;;2.05;;
40959;SDS011;27842;52.272;8.052;2022-10-16T07:19:34;4.53;;;2.60;;
40959;SDS011;27842;52.272;8.052;2022-10-16T07:22:00;7.20;;;2.70;;
40959;SDS011;27842;52.272;8.052;2022-10-16T07:24:26;7.07;;;2.30;;
40959;SDS011;27842;52.272;8.052;2022-10-16T07:26:51;6.10;;;2.40;;
40959;SDS011;27842;52.272;8.052;2022-10-16T07:29:18;5.93;;;2.40;;
40959;SDS011;27842;52.272;8.052;2022-10-16T07:31:45;7.43;;;2.33;;
40959;SDS011;27842;52.272;8.052;2022-10-16T07:34:12;6.80;;;2.30;;
40959;SDS011;27842;52.272;8.052;2022-10-16T07:36:39;7.43;;;2.28;;
40959;SDS011;27842;52.272;8.052;2022-10-16T07:39:05;9.35;;;2.85;;
40959;SDS011;27842;52.272;8.052;2022-10-16T07:41:31;7.80;;;2.70;;
40959;SDS011;27842;52.272;8.052;2022-10-16T07:43:57;5.95;;;2.30;;
40959;SDS011;27842;52.272;8.052;2022-10-16T07:46:25;4.55;;;2.13;;
40959;SDS011;27842;52.272;8.052;2022-10-16T07:48:51;6.90;;;2.58;;
40959;SDS011;27842;52.272;8.052;2022-10-16T07:51:18;7.65;;;2.20;;
40959;SDS011;27842;52.272;8.052;2022-10-16T07:53:45;8.85;;;2.60;;
40959;SDS011;27842;52.272;8.052;2022-10-16T07:56:11;5.68;;;2.20;;
40959;SDS011;27842;52.272;8.052;2022-10-16T07:58:37;5.93;;;2.28;;
40959;SDS011;27842;52.272;8.052;2022-10-16T08:01:04;9.88;;;2.60;;
40959;SDS011;27842;52.272;8.052;2022-10-16T08:03:34;8.55;;;2.47;;
40959;SDS011;27842;52.272;8.052;2022-10-16T08:06:00;5.97;;;2.60;;
40959;SDS011;27842;52.272;8.052;2022-10-16T08:08:26;7.03;;;2.40;;
40959;SDS011;27842;52.272;8.052;2022-10-16T08:10:53;5.85;;;2.30;;
40959;SDS011;27842;52.272;8.052;2022-10-16T08:13:18;8.73;;;2.50;;
40959;SDS011;27842;52.272;8.052;2022-10-16T08:15:44;7.20;;;2.00;;
40959;SDS011;27842;52.272;8.052;2022-10-16T08:18:11;6.43;;;2.15;;
40959;SDS011;27842;52.272;8.052;2022-10-16T08:20:38;9.15;;;2.42;;
40959;SDS011;27842;52.272;8.052;2022-10-16T08:23:04;5.72;;;2.20;;
40959;SDS011;27842;52.272;8.052;2022-10-16T08:25:30;5.47;;;2.20;;
40959;SDS011;27842;52.272;8.052;2022-10-16T08:27:56;6.32;;;2.28;;
40959;SDS011;27842;52.272;8.052;2022-10-16T08:30:22;7.72;;;2.50;;
40959;SDS011;27842;52.272;8.052;2022-10-16T08:32:49;10.73;;;2.38;;
40959;SDS011;27842;52.272;8.052;2022-10-16T08:35:15;8.25;;;2.25;;
40959;SDS011;27842;52.272;8.052;2022-10-16T08:37:41;9.95;;;2.67;;
40959;SDS011;27842;52.272;8.052;2022-10-16T08:40:20;6.68;;;2.47;;
40959;SDS011;27842;52.272;8.052;2022-10-16T08:48:51;6.85;;;2.60;;
40959;SDS011;27842;52.272;8.052;2022-10-16T08:53:55;6.22;;;2.38;;
40959;SDS011;27842;52.272;8.052;2022-10-16T08:56:22;13.27;;;2.88;;
40959;SDS011;27842;52.272;8.052;2022-10-16T08:58:49;13.68;;;4.38;;
40959;SDS011;27842;52.272;8.052;2022-10-16T09:01:16;13.50;;;3.30;;
40959;SDS011;27842;52.272;8.052;2022-10-16T09:11:56;8.02;;;2.67;;
40959;SDS011;27842;52.272;8.052;2022-10-16T09:22:43;8.98;;;2.50;;
40959;SDS011;27842;52.272;8.052;2022-10-16T09:25:13;7.10;;;2.40;;
40959;SDS011;27842;52.272;8.052;2022-10-16T09:27:46;6.90;;;2.05;;
40959;SDS011;27842;52.272;8.052;2022-10-16T09:30:17;9.48;;;2.17;;
40959;SDS011;27842;52.272;8.052;2022-10-16T09:32:44;8.20;;;2.60;;
40959;SDS011;27842;52.272;8.052;2022-10-16T09:35:15;11.85;;;2.17;;
40959;SDS011;27842;52.272;8.052;2022-10-16T09:37:45;10.13;;;2.30;;
40959;SDS011;27842;52.272;8.052;2022-10-16T09:40:23;7.18;;;1.85;;
40959;SDS011;27842;52.272;8.052;2022-10-16T09:42:52;8.32;;;1.77;;
40959;SDS011;27842;52.272;8.052;2022-10-16T09:45:26;7.18;;;1.80;;
40959;SDS011;27842;52.272;8.052;2022-10-16T09:47:52;9.52;;;2.05;;
40959;SDS011;27842;52.272;8.052;2022-10-16T09:50:28;9.32;;;2.00;;
40959;SDS011;27842;52.272;8.052;2022-10-16T09:53:10;7.78;;;2.00;;
40959;SDS011;27842;52.272;8.052;2022-10-16T09:55:47;8.23;;;1.80;;
40959;SDS011;27842;52.272;8.052;2022-10-16T09:58:17;7.80;;;1.90;;
40959;SDS011;27842;52.272;8.052;2022-10-16T10:00:48;10.85;;;1.83;;
40959;SDS011;27842;52.272;8.052;2022-10-16T10:05:56;9.55;;;2.05;;
40959;SDS011;27842;52.272;8.052;2022-10-16T10:08:22;9.75;;;2.85;;
40959;SDS011;27842;52.272;8.052;2022-10-16T10:10:48;11.73;;;2.28;;
40959;SDS011;27842;52.272;8.052;2022-10-16T10:13:20;9.68;;;1.80;;
40959;SDS011;27842;52.272;8.052;2022-10-16T10:15:49;8.15;;;2.10;;
40959;SDS011;27842;52.272;8.052;2022-10-16T10:18:16;13.70;;;3.15;;
40959;SDS011;27842;52.272;8.052;2022-10-16T10:20:45;12.43;;;3.20;;
40959;SDS011;27842;52.272;8.052;2022-10-16T10:23:19;11.43;;;3.08;;
40959;SDS011;27842;52.272;8.052;2022-10-16T10:31:14;4.93;;;1.50;;
40959;SDS011;27842;52.272;8.052;2022-10-16T10:36:59;9.95;;;1.50;;
40959;SDS011;27842;52.272;8.052;2022-10-16T10:39:42;7.45;;;1.33;;
40959;SDS011;27842;52.272;8.052;2022-10-16T10:42:19;5.60;;;1.50;;
40959;SDS011;27842;52.272;8.052;2022-10-16T10:48:14;8.75;;;1.88;;
40959;SDS011;27842;52.272;8.052;2022-10-16T10:51:30;9.68;;;2.13;;
40959;SDS011;27842;52.272;8.052;2022-10-16T10:56:44;8.60;;;2.00;;
40959;SDS011;27842;52.272;8.052;2022-10-16T11:02:18;11.70;;;2.28;;
40959;SDS011;27842;52.272;8.052;2022-10-16T11:10:50;9.60;;;2.63;;
40959;SDS011;27842;52.272;8.052;2022-10-16T11:15:58;6.80;;;1.60;;
40959;SDS011;27842;52.272;8.052;2022-10-16T11:18:32;6.85;;;1.52;;
40959;SDS011;27842;52.272;8.052;2022-10-16T11:21:08;7.97;;;1.63;;
40959;SDS011;27842;52.272;8.052;2022-10-16T11:23:40;4.18;;;1.27;;
40959;SDS011;27842;52.272;8.052;2022-10-16T11:26:16;5.57;;;1.65;;
40959;SDS011;27842;52.272;8.052;2022-10-16T11:28:48;6.20;;;1.40;;
40959;SDS011;27842;52.272;8.052;2022-10-16T11:31:36;9.70;;;1.90;;
40959;SDS011;27842;52.272;8.052;2022-10-16T11:37:41;5.43;;;1.52;;
40959;SDS011;27842;52.272;8.052;2022-10-16T11:43:14;6.25;;;1.75;;
40959;SDS011;27842;52.272;8.052;2022-10-16T11:45:51;10.00;;;2.70;;
40959;SDS011;27842;52.272;8.052;2022-10-16T11:48:27;7.78;;;2.40;;
40959;SDS011;27842;52.272;8.052;2022-10-16T11:51:02;8.32;;;2.28;;
40959;SDS011;27842;52.272;8.052;2022-10-16T11:53:51;10.35;;;2.40;;
40959;SDS011;27842;52.272;8.052;2022-10-16T11:56:22;8.25;;;2.80;;
40959;SDS011;27842;52.272;8.052;2022-10-16T12:01:50;8.63;;;2.38;;
40959;SDS011;27842;52.272;8.052;2022-10-16T12:04:27;9.90;;;2.90;;
40959;SDS011;27842;52.272;8.052;2022-10-16T12:07:11;10.32;;;2.72;;
40959;SDS011;27842;52.272;8.052;2022-10-16T12:09:40;9.20;;;2.45;;
40959;SDS011;27842;52.272;8.052;2022-10-16T12:12:23;8.57;;;2.30;;
40959;SDS011;27842;52.272;8.052;2022-10-16T12:15:03;10.90;;;2.50;;
40959;SDS011;27842;52.272;8.052;2022-10-16T12:17:45;10.30;;;2.20;;
40959;SDS011;27842;52.272;8.052;2022-10-16T12:22:37;11.55;;;2.85;;
40959;SDS011;27842;52.272;8.052;2022-10-16T12:30:39;10.80;;;2.95;;
40959;SDS011;27842;52.272;8.052;2022-10-16T12:33:15;10.77;;;2.40;;
40959;SDS011;27842;52.272;8.052;2022-10-16T12:35:45;10.82;;;3.10;;
40959;SDS011;27842;52.272;8.052;2022-10-16T12:38:15;10.98;;;3.42;;
40959;SDS011;27842;52.272;8.052;2022-10-16T12:41:04;11.23;;;3.08;;
40959;SDS011;27842;52.272;8.052;2022-10-16T12:43:40;10.82;;;2.13;;
40959;SDS011;27842;52.272;8.052;2022-10-16T12:48:33;11.50;;;2.00;;
40959;SDS011;27842;52.272;8.052;2022-10-16T12:51:09;11.77;;;2.15;;
40959;SDS011;27842;52.272;8.052;2022-10-16T12:53:57;9.50;;;2.17;;
40959;SDS011;27842;52.272;8.052;2022-10-16T12:59:46;8.63;;;2.13;;
40959;SDS011;27842;52.272;8.052;2022-10-16T13:18:46;7.47;;;2.10;;
40959;SDS011;27842;52.272;8.052;2022-10-16T13:21:33;12.38;;;1.90;;
40959;SDS011;27842;52.272;8.052;2022-10-16T13:24:24;8.80;;;2.28;;
40959;SDS011;27842;52.272;8.052;2022-10-16T13:33:00;9.68;;;2.33;;
40959;SDS011;27842;52.272;8.052;2022-10-16T13:35:34;10.25;;;2.10;;
40959;SDS011;27842;52.272;8.052;2022-10-16T13:38:05;15.18;;;2.15;;
40959;SDS011;27842;52.272;8.052;2022-10-16T13:40:47;9.30;;;2.35;;
40959;SDS011;27842;52.272;8.052;2022-10-16T13:43:38;11.52;;;2.35;;
40959;SDS011;27842;52.272;8.052;2022-10-16T13:46:11;9.88;;;2.00;;
40959;SDS011;27842;52.272;8.052;2022-10-16T13:48:39;11.05;;;1.85;;
40959;SDS011;27842;52.272;8.052;2022-10-16T13:51:12;6.88;;;1.40;;
40959;SDS011;27842;52.272;8.052;2022-10-16T13:53:39;7.38;;;1.45;;
40959;SDS011;27842;52.272;8.052;2022-10-16T13:56:07;14.25;;;1.85;;
40959;SDS011;27842;52.272;8.052;2022-10-16T13:58:45;9.18;;;2.00;;
40959;SDS011;27842;52.272;8.052;2022-10-16T14:01:19;9.88;;;2.55;;
40959;SDS011;27842;52.272;8.052;2022-10-16T14:03:49;13.05;;;3.50;;
40959;SDS011;27842;52.272;8.052;2022-10-16T14:06:17;15.10;;;3.80;;
40959;SDS011;27842;52.272;8.052;2022-10-16T14:08:48;14.85;;;3.70;;
40959;SDS011;27842;52.272;8.052;2022-10-16T14:11:21;15.57;;;5.13;;
40959;SDS011;27842;52.272;8.052;2022-10-16T14:13:48;14.52;;;4.10;;
40959;SDS011;27842;52.272;8.052;2022-10-16T14:16:16;17.13;;;5.28;;
40959;SDS011;27842;52.272;8.052;2022-10-16T14:19:20;13.50;;;3.17;;
40959;SDS011;27842;52.272;8.052;2022-10-16T14:21:45;9.32;;;2.47;;
40959;SDS011;27842;52.272;8.052;2022-10-16T14:24:11;14.93;;;2.30;;
40959;SDS011;27842;52.272;8.052;2022-10-16T14:26:42;8.40;;;1.90;;
40959;SDS011;27842;52.272;8.052;2022-10-16T14:29:13;10.43;;;2.33;;
40959;SDS011;27842;52.272;8.052;2022-10-16T14:31:40;9.98;;;1.48;;
40959;SDS011;27842;52.272;8.052;2022-10-16T14:34:26;9.73;;;1.75;;
40959;SDS011;27842;52.272;8.052;2022-10-16T14:37:13;8.57;;;1.50;;
40959;SDS011;27842;52.272;8.052;2022-10-16T14:39:51;12.47;;;2.60;;
40959;SDS011;27842;52.272;8.052;2022-10-16T14:42:18;6.32;;;1.98;;
40959;SDS011;27842;52.272;8.052;2022-10-16T14:44:45;8.63;;;2.35;;
40959;SDS011;27842;52.272;8.052;2022-10-16T14:47:19;10.38;;;2.33;;
40959;SDS011;27842;52.272;8.052;2022-10-16T14:49:50;8.10;;;1.73;;
40959;SDS011;27842;52.272;8.052;2022-10-16T14:52:16;12.23;;;2.25;;
40959;SDS011;27842;52.272;8.052;2022-10-16T14:54:42;11.23;;;2.30;;
40959;SDS011;27842;52.272;8.052;2022-10-16T14:57:22;12.20;;;2.53;;
40959;SDS011;27842;52.272;8.052;2022-10-16T14:59:51;10.85;;;2.38;;
40959;SDS011;27842;52.272;8.052;2022-10-16T15:04:47;11.82;;;3.10;;
40959;SDS011;27842;52.272;8.052;2022-10-16T15:07:13;14.38;;;2.80;;
40959;SDS011;27842;52.272;8.052;2022-10-16T15:09:39;11.80;;;2.30;;
40959;SDS011;27842;52.272;8.052;2022-10-16T15:12:04;9.95;;;2.40;;
40959;SDS011;27842;52.272;8.052;2022-10-16T15:14:30;11.18;;;1.75;;
40959;SDS011;27842;52.272;8.052;2022-10-16T15:16:56;13.40;;;2.65;;
40959;SDS011;27842;52.272;8.052;2022-10-16T15:19:22;10.13;;;2.15;;
40959;SDS011;27842;52.272;8.052;2022-10-16T15:21:47;10.50;;;2.30;;
40959;SDS011;27842;52.272;8.052;2022-10-16T15:24:14;10.75;;;2.50;;
40959;SDS011;27842;52.272;8.052;2022-10-16T15:26:40;9.60;;;2.53;;
40959;SDS011;27842;52.272;8.052;2022-10-16T15:29:06;10.07;;;2.75;;
40959;SDS011;27842;52.272;8.052;2022-10-16T15:31:32;13.40;;;3.67;;
40959;SDS011;27842;52.272;8.052;2022-10-16T15:33:58;16.48;;;4.45;;
40959;SDS011;27842;52.272;8.052;2022-10-16T15:36:29;15.73;;;4.15;;
40959;SDS011;27842;52.272;8.052;2022-10-16T15:38:58;12.32;;;3.78;;
40959;SDS011;27842;52.272;8.052;2022-10-16T15:41:25;12.05;;;2.97;;
40959;SDS011;27842;52.272;8.052;2022-10-16T15:43:51;11.80;;;3.05;;
40959;SDS011;27842;52.272;8.052;2022-10-16T15:46:18;10.68;;;3.00;;
40959;SDS011;27842;52.272;8.052;2022-10-16T15:48:45;10.90;;;2.83;;
40959;SDS011;27842;52.272;8.052;2022-10-16T15:51:11;11.45;;;3.05;;
40959;SDS011;27842;52.272;8.052;2022-10-16T15:53:37;10.73;;;2.90;;
40959;SDS011;27842;52.272;8.052;2022-10-16T15:56:03;11.82;;;2.95;;
40959;SDS011;27842;52.272;8.052;2022-10-16T15:58:30;11.43;;;3.28;;
40959;SDS011;27842;52.272;8.052;2022-10-16T16:00:56;11.18;;;2.67;;
40959;SDS011;27842;52.272;8.052;2022-10-16T16:03:22;13.32;;;3.55;;
40959;SDS011;27842;52.272;8.052;2022-10-16T16:05:48;11.50;;;2.95;;
40959;SDS011;27842;52.272;8.052;2022-10-16T16:08:14;10.52;;;2.95;;
40959;SDS011;27842;52.272;8.052;2022-10-16T16:10:39;8.10;;;2.53;;
40959;SDS011;27842;52.272;8.052;2022-10-16T16:13:05;14.98;;;3.85;;
40959;SDS011;27842;52.272;8.052;2022-10-16T16:15:31;11.20;;;2.78;;
40959;SDS011;27842;52.272;8.052;2022-10-16T16:17:56;10.13;;;2.75;;
40959;SDS011;27842;52.272;8.052;2022-10-16T16:20:22;10.48;;;3.28;;
40959;SDS011;27842;52.272;8.052;2022-10-16T16:22:47;8.93;;;3.13;;
40959;SDS011;27842;52.272;8.052;2022-10-16T16:25:13;11.85;;;2.50;;
40959;SDS011;27842;52.272;8.052;2022-10-16T16:27:39;9.85;;;2.33;;
40959;SDS011;27842;52.272;8.052;2022-10-16T16:30:06;10.02;;;2.97;;
40959;SDS011;27842;52.272;8.052;2022-10-16T16:32:32;11.32;;;3.05;;
40959;SDS011;27842;52.272;8.052;2022-10-16T16:34:59;13.02;;;3.30;;
40959;SDS011;27842;52.272;8.052;2022-10-16T16:37:25;12.70;;;3.10;;
40959;SDS011;27842;52.272;8.052;2022-10-16T16:39:51;12.77;;;3.33;;
40959;SDS011;27842;52.272;8.052;2022-10-16T16:42:16;13.07;;;3.75;;
40959;SDS011;27842;52.272;8.052;2022-10-16T16:44:42;11.43;;;3.17;;
40959;SDS011;27842;52.272;8.052;2022-10-16T16:47:08;13.23;;;3.30;;
40959;SDS011;27842;52.272;8.052;2022-10-16T16:49:34;11.85;;;3.20;;
40959;SDS011;27842;52.272;8.052;2022-10-16T16:52:00;13.25;;;3.40;;